Terminal Aerodrome Forecast
Issued by NWS

Home | Current Version | Previous Version | Text Only | Print | Product List | Glossary On
Versions: 1 2 3 4 5 6 7 8 9 10 11 12 13 14 15 16 17 18 19 20 21 22 23 24 25
134
FTAK31 PAJN 061128
TAFAGY
TAF
PAGY 061128Z 0612/0712 20011KT P6SM VCSH BKN015 OVC050
     FM061900 21015G25KT P6SM BKN050 OVC070
     FM070300 21010KT P6SM SCT050 BKN070 OVC090
     FM070700 04010KT P6SM SCT050 BKN070 OVC090
      AMD LTD TO CLD VIS AND WIND=

USA.gov is the U.S. government's official web portal to all federal, state and local government web resources and services.